sensor_id;sensor_type;location;lat;lon;timestamp;P1;durP1;ratioP1;P2;durP2;ratioP2
67595;SDS011;54410;48.694;8.934;2023-03-01T00:00:51;18.47;;;11.03;;
67595;SDS011;54410;48.694;8.934;2023-03-01T00:03:17;28.17;;;13.67;;
67595;SDS011;54410;48.694;8.934;2023-03-01T00:05:44;22.70;;;11.43;;
67595;SDS011;54410;48.694;8.934;2023-03-01T00:08:10;24.03;;;12.50;;
67595;SDS011;54410;48.694;8.934;2023-03-01T00:10:36;19.37;;;10.80;;
67595;SDS011;54410;48.694;8.934;2023-03-01T00:13:02;23.53;;;12.77;;
67595;SDS011;54410;48.694;8.934;2023-03-01T00:15:30;29.40;;;13.07;;
67595;SDS011;54410;48.694;8.934;2023-03-01T00:17:56;21.13;;;11.73;;
67595;SDS011;54410;48.694;8.934;2023-03-01T00:20:22;31.57;;;13.23;;
67595;SDS011;54410;48.694;8.934;2023-03-01T00:22:47;21.47;;;11.43;;
67595;SDS011;54410;48.694;8.934;2023-03-01T00:25:13;26.20;;;12.83;;
67595;SDS011;54410;48.694;8.934;2023-03-01T00:27:39;18.03;;;10.60;;
67595;SDS011;54410;48.694;8.934;2023-03-01T00:30:06;20.97;;;11.33;;
67595;SDS011;54410;48.694;8.934;2023-03-01T00:32:32;30.10;;;13.53;;
67595;SDS011;54410;48.694;8.934;2023-03-01T00:34:58;18.53;;;10.87;;
67595;SDS011;54410;48.694;8.934;2023-03-01T00:37:24;24.23;;;12.57;;
67595;SDS011;54410;48.694;8.934;2023-03-01T00:39:50;20.80;;;11.73;;
67595;SDS011;54410;48.694;8.934;2023-03-01T00:42:16;29.33;;;13.90;;
67595;SDS011;54410;48.694;8.934;2023-03-01T00:44:42;24.30;;;12.43;;
67595;SDS011;54410;48.694;8.934;2023-03-01T00:47:08;28.27;;;13.97;;
67595;SDS011;54410;48.694;8.934;2023-03-01T00:49:34;20.13;;;11.67;;
67595;SDS011;54410;48.694;8.934;2023-03-01T00:52:00;28.77;;;14.83;;
67595;SDS011;54410;48.694;8.934;2023-03-01T00:54:26;33.00;;;14.57;;
67595;SDS011;54410;48.694;8.934;2023-03-01T00:56:52;31.47;;;13.87;;
67595;SDS011;54410;48.694;8.934;2023-03-01T00:59:18;28.43;;;14.17;;
67595;SDS011;54410;48.694;8.934;2023-03-01T01:01:44;27.67;;;13.50;;
67595;SDS011;54410;48.694;8.934;2023-03-01T01:04:11;30.20;;;13.83;;
67595;SDS011;54410;48.694;8.934;2023-03-01T01:06:41;30.27;;;14.30;;
67595;SDS011;54410;48.694;8.934;2023-03-01T01:09:09;21.00;;;11.17;;
67595;SDS011;54410;48.694;8.934;2023-03-01T01:11:42;32.57;;;13.70;;
67595;SDS011;54410;48.694;8.934;2023-03-01T01:14:08;31.03;;;14.30;;
67595;SDS011;54410;48.694;8.934;2023-03-01T01:16:34;28.53;;;13.30;;
67595;SDS011;54410;48.694;8.934;2023-03-01T01:19:00;29.60;;;13.83;;
67595;SDS011;54410;48.694;8.934;2023-03-01T01:21:26;22.47;;;12.53;;
67595;SDS011;54410;48.694;8.934;2023-03-01T01:23:52;32.67;;;13.73;;
67595;SDS011;54410;48.694;8.934;2023-03-01T01:26:19;25.63;;;13.17;;
67595;SDS011;54410;48.694;8.934;2023-03-01T01:28:47;29.13;;;13.40;;
67595;SDS011;54410;48.694;8.934;2023-03-01T01:31:13;28.20;;;14.87;;
67595;SDS011;54410;48.694;8.934;2023-03-01T01:33:39;22.80;;;12.07;;
67595;SDS011;54410;48.694;8.934;2023-03-01T01:36:06;30.43;;;14.17;;
67595;SDS011;54410;48.694;8.934;2023-03-01T01:38:32;30.87;;;14.53;;
67595;SDS011;54410;48.694;8.934;2023-03-01T01:40:58;24.73;;;12.53;;
67595;SDS011;54410;48.694;8.934;2023-03-01T01:45:51;30.73;;;13.73;;
67595;SDS011;54410;48.694;8.934;2023-03-01T01:48:20;29.47;;;13.60;;
67595;SDS011;54410;48.694;8.934;2023-03-01T01:50:53;30.30;;;14.07;;
67595;SDS011;54410;48.694;8.934;2023-03-01T01:53:20;26.13;;;13.30;;
67595;SDS011;54410;48.694;8.934;2023-03-01T01:55:48;29.97;;;14.30;;
67595;SDS011;54410;48.694;8.934;2023-03-01T01:58:15;30.47;;;13.30;;
67595;SDS011;54410;48.694;8.934;2023-03-01T02:00:43;30.53;;;13.67;;
67595;SDS011;54410;48.694;8.934;2023-03-01T02:03:11;20.30;;;11.30;;
67595;SDS011;54410;48.694;8.934;2023-03-01T02:05:46;31.63;;;13.43;;
67595;SDS011;54410;48.694;8.934;2023-03-01T02:08:13;26.73;;;12.60;;
67595;SDS011;54410;48.694;8.934;2023-03-01T02:10:41;29.20;;;13.67;;
67595;SDS011;54410;48.694;8.934;2023-03-01T02:13:07;29.17;;;13.27;;
67595;SDS011;54410;48.694;8.934;2023-03-01T02:15:34;20.77;;;10.80;;
67595;SDS011;54410;48.694;8.934;2023-03-01T02:18:02;27.43;;;13.57;;
67595;SDS011;54410;48.694;8.934;2023-03-01T02:20:44;27.80;;;12.53;;
67595;SDS011;54410;48.694;8.934;2023-03-01T02:23:16;30.17;;;12.87;;
67595;SDS011;54410;48.694;8.934;2023-03-01T02:30:38;26.33;;;12.57;;
67595;SDS011;54410;48.694;8.934;2023-03-01T02:33:25;27.43;;;13.30;;
67595;SDS011;54410;48.694;8.934;2023-03-01T02:35:51;31.20;;;13.77;;
67595;SDS011;54410;48.694;8.934;2023-03-01T02:38:18;25.13;;;13.17;;
67595;SDS011;54410;48.694;8.934;2023-03-01T02:40:45;24.37;;;12.43;;
67595;SDS011;54410;48.694;8.934;2023-03-01T02:43:11;27.13;;;12.90;;
67595;SDS011;54410;48.694;8.934;2023-03-01T02:45:37;29.50;;;13.87;;
67595;SDS011;54410;48.694;8.934;2023-03-01T02:48:13;25.93;;;12.70;;
67595;SDS011;54410;48.694;8.934;2023-03-01T02:53:09;26.27;;;12.50;;
67595;SDS011;54410;48.694;8.934;2023-03-01T02:55:38;18.27;;;10.30;;
67595;SDS011;54410;48.694;8.934;2023-03-01T02:58:04;29.37;;;13.53;;
67595;SDS011;54410;48.694;8.934;2023-03-01T03:00:35;25.87;;;12.07;;
67595;SDS011;54410;48.694;8.934;2023-03-01T03:03:05;27.37;;;13.50;;
67595;SDS011;54410;48.694;8.934;2023-03-01T03:05:31;24.83;;;12.27;;
67595;SDS011;54410;48.694;8.934;2023-03-01T03:07:58;25.47;;;13.03;;
67595;SDS011;54410;48.694;8.934;2023-03-01T03:10:25;27.77;;;13.23;;
67595;SDS011;54410;48.694;8.934;2023-03-01T03:12:53;25.13;;;12.50;;
67595;SDS011;54410;48.694;8.934;2023-03-01T03:15:19;26.63;;;14.43;;
67595;SDS011;54410;48.694;8.934;2023-03-01T03:17:45;19.77;;;12.37;;
67595;SDS011;54410;48.694;8.934;2023-03-01T03:20:12;30.43;;;13.33;;
67595;SDS011;54410;48.694;8.934;2023-03-01T03:22:43;26.53;;;12.63;;
67595;SDS011;54410;48.694;8.934;2023-03-01T03:25:10;23.73;;;12.17;;
67595;SDS011;54410;48.694;8.934;2023-03-01T03:27:37;24.30;;;13.67;;
67595;SDS011;54410;48.694;8.934;2023-03-01T03:30:04;23.03;;;12.87;;
67595;SDS011;54410;48.694;8.934;2023-03-01T03:32:34;25.80;;;13.20;;
67595;SDS011;54410;48.694;8.934;2023-03-01T03:35:00;23.20;;;12.20;;
67595;SDS011;54410;48.694;8.934;2023-03-01T03:37:26;19.03;;;10.73;;
67595;SDS011;54410;48.694;8.934;2023-03-01T03:40:11;27.73;;;13.20;;
67595;SDS011;54410;48.694;8.934;2023-03-01T03:42:40;28.33;;;13.43;;
67595;SDS011;54410;48.694;8.934;2023-03-01T03:45:06;29.07;;;13.60;;
67595;SDS011;54410;48.694;8.934;2023-03-01T03:47:32;17.40;;;10.50;;
67595;SDS011;54410;48.694;8.934;2023-03-01T03:49:58;25.97;;;14.23;;
67595;SDS011;54410;48.694;8.934;2023-03-01T03:52:24;42.73;;;14.57;;
67595;SDS011;54410;48.694;8.934;2023-03-01T03:54:50;26.83;;;13.03;;
67595;SDS011;54410;48.694;8.934;2023-03-01T03:57:16;27.60;;;13.50;;
67595;SDS011;54410;48.694;8.934;2023-03-01T03:59:42;27.67;;;13.30;;
67595;SDS011;54410;48.694;8.934;2023-03-01T04:02:08;26.03;;;13.77;;
67595;SDS011;54410;48.694;8.934;2023-03-01T04:04:34;19.97;;;11.57;;
67595;SDS011;54410;48.694;8.934;2023-03-01T04:07:00;23.93;;;12.57;;
67595;SDS011;54410;48.694;8.934;2023-03-01T04:09:26;26.43;;;13.47;;
67595;SDS011;54410;48.694;8.934;2023-03-01T04:11:52;24.13;;;13.17;;
67595;SDS011;54410;48.694;8.934;2023-03-01T04:14:18;25.87;;;13.43;;
67595;SDS011;54410;48.694;8.934;2023-03-01T04:16:44;20.60;;;13.00;;
67595;SDS011;54410;48.694;8.934;2023-03-01T04:19:09;26.33;;;13.40;;
67595;SDS011;54410;48.694;8.934;2023-03-01T04:21:35;22.93;;;12.87;;
67595;SDS011;54410;48.694;8.934;2023-03-01T04:24:01;27.83;;;13.47;;
67595;SDS011;54410;48.694;8.934;2023-03-01T04:26:28;23.30;;;12.53;;
67595;SDS011;54410;48.694;8.934;2023-03-01T04:28:54;28.07;;;14.53;;
67595;SDS011;54410;48.694;8.934;2023-03-01T04:31:20;29.00;;;14.03;;
67595;SDS011;54410;48.694;8.934;2023-03-01T04:33:47;24.43;;;12.70;;
67595;SDS011;54410;48.694;8.934;2023-03-01T04:36:14;25.10;;;12.77;;
67595;SDS011;54410;48.694;8.934;2023-03-01T04:38:40;20.07;;;11.97;;
67595;SDS011;54410;48.694;8.934;2023-03-01T04:41:07;29.20;;;14.57;;
67595;SDS011;54410;48.694;8.934;2023-03-01T04:43:33;18.63;;;11.90;;
67595;SDS011;54410;48.694;8.934;2023-03-01T04:46:06;26.07;;;12.80;;
67595;SDS011;54410;48.694;8.934;2023-03-01T04:48:39;27.23;;;14.03;;
67595;SDS011;54410;48.694;8.934;2023-03-01T04:51:06;23.90;;;12.87;;
67595;SDS011;54410;48.694;8.934;2023-03-01T04:53:33;28.93;;;12.93;;
67595;SDS011;54410;48.694;8.934;2023-03-01T04:56:01;20.13;;;11.17;;
67595;SDS011;54410;48.694;8.934;2023-03-01T04:58:27;31.07;;;14.97;;
67595;SDS011;54410;48.694;8.934;2023-03-01T05:00:53;27.80;;;14.07;;
67595;SDS011;54410;48.694;8.934;2023-03-01T05:03:20;19.70;;;11.33;;
67595;SDS011;54410;48.694;8.934;2023-03-01T05:05:46;24.80;;;13.43;;
67595;SDS011;54410;48.694;8.934;2023-03-01T05:08:13;25.57;;;13.37;;
67595;SDS011;54410;48.694;8.934;2023-03-01T05:10:45;22.30;;;11.87;;
67595;SDS011;54410;48.694;8.934;2023-03-01T05:13:12;30.93;;;14.60;;
67595;SDS011;54410;48.694;8.934;2023-03-01T05:15:40;20.60;;;12.13;;
67595;SDS011;54410;48.694;8.934;2023-03-01T05:18:06;27.73;;;14.60;;
67595;SDS011;54410;48.694;8.934;2023-03-01T05:20:36;22.33;;;12.23;;
67595;SDS011;54410;48.694;8.934;2023-03-01T05:23:02;34.20;;;15.73;;
67595;SDS011;54410;48.694;8.934;2023-03-01T05:25:30;26.13;;;13.73;;
67595;SDS011;54410;48.694;8.934;2023-03-01T05:27:58;37.00;;;15.77;;
67595;SDS011;54410;48.694;8.934;2023-03-01T05:30:24;24.17;;;12.63;;
67595;SDS011;54410;48.694;8.934;2023-03-01T05:32:50;28.77;;;14.23;;
67595;SDS011;54410;48.694;8.934;2023-03-01T05:35:20;21.73;;;13.10;;
67595;SDS011;54410;48.694;8.934;2023-03-01T05:37:47;27.33;;;13.60;;
67595;SDS011;54410;48.694;8.934;2023-03-01T05:40:14;20.40;;;11.87;;
67595;SDS011;54410;48.694;8.934;2023-03-01T05:42:47;34.60;;;15.17;;
67595;SDS011;54410;48.694;8.934;2023-03-01T05:45:14;23.63;;;13.37;;
67595;SDS011;54410;48.694;8.934;2023-03-01T05:47:41;33.33;;;15.80;;
67595;SDS011;54410;48.694;8.934;2023-03-01T05:50:22;21.77;;;12.23;;
67595;SDS011;54410;48.694;8.934;2023-03-01T05:55:24;27.37;;;13.67;;
67595;SDS011;54410;48.694;8.934;2023-03-01T05:57:50;24.57;;;13.00;;
67595;SDS011;54410;48.694;8.934;2023-03-01T06:00:17;31.73;;;14.57;;
67595;SDS011;54410;48.694;8.934;2023-03-01T06:02:44;30.63;;;14.10;;
67595;SDS011;54410;48.694;8.934;2023-03-01T06:05:11;19.40;;;12.03;;
67595;SDS011;54410;48.694;8.934;2023-03-01T06:07:38;35.63;;;16.07;;
67595;SDS011;54410;48.694;8.934;2023-03-01T06:10:04;28.60;;;15.30;;
67595;SDS011;54410;48.694;8.934;2023-03-01T06:12:34;29.83;;;15.30;;
67595;SDS011;54410;48.694;8.934;2023-03-01T06:15:00;27.73;;;14.77;;
67595;SDS011;54410;48.694;8.934;2023-03-01T06:17:30;28.50;;;14.33;;
67595;SDS011;54410;48.694;8.934;2023-03-01T06:19:56;31.93;;;16.93;;
67595;SDS011;54410;48.694;8.934;2023-03-01T06:22:23;22.33;;;13.30;;
67595;SDS011;54410;48.694;8.934;2023-03-01T06:24:49;30.83;;;14.83;;
67595;SDS011;54410;48.694;8.934;2023-03-01T06:27:15;30.63;;;14.53;;
67595;SDS011;54410;48.694;8.934;2023-03-01T06:29:41;23.93;;;13.23;;
67595;SDS011;54410;48.694;8.934;2023-03-01T06:32:07;30.50;;;15.93;;
67595;SDS011;54410;48.694;8.934;2023-03-01T06:34:33;29.57;;;16.13;;
67595;SDS011;54410;48.694;8.934;2023-03-01T06:36:59;33.13;;;15.33;;
67595;SDS011;54410;48.694;8.934;2023-03-01T06:39:27;26.83;;;13.87;;
67595;SDS011;54410;48.694;8.934;2023-03-01T06:41:53;31.40;;;14.93;;
67595;SDS011;54410;48.694;8.934;2023-03-01T06:44:19;28.37;;;14.33;;
67595;SDS011;54410;48.694;8.934;2023-03-01T06:46:45;30.97;;;14.83;;
67595;SDS011;54410;48.694;8.934;2023-03-01T06:49:11;32.20;;;15.67;;
67595;SDS011;54410;48.694;8.934;2023-03-01T06:51:37;29.80;;;15.50;;
67595;SDS011;54410;48.694;8.934;2023-03-01T06:54:04;19.73;;;12.23;;
67595;SDS011;54410;48.694;8.934;2023-03-01T06:56:31;30.17;;;15.03;;
67595;SDS011;54410;48.694;8.934;2023-03-01T06:58:56;27.03;;;13.87;;
67595;SDS011;54410;48.694;8.934;2023-03-01T07:01:22;26.07;;;14.47;;
67595;SDS011;54410;48.694;8.934;2023-03-01T07:03:48;21.63;;;12.33;;
67595;SDS011;54410;48.694;8.934;2023-03-01T07:06:14;28.30;;;14.80;;
67595;SDS011;54410;48.694;8.934;2023-03-01T07:08:40;24.40;;;14.00;;
67595;SDS011;54410;48.694;8.934;2023-03-01T07:11:06;26.00;;;14.30;;
67595;SDS011;54410;48.694;8.934;2023-03-01T07:13:33;23.63;;;13.60;;
67595;SDS011;54410;48.694;8.934;2023-03-01T07:15:59;24.43;;;13.27;;
67595;SDS011;54410;48.694;8.934;2023-03-01T07:18:25;19.90;;;12.70;;
67595;SDS011;54410;48.694;8.934;2023-03-01T07:20:51;23.90;;;14.07;;
67595;SDS011;54410;48.694;8.934;2023-03-01T07:23:17;22.90;;;13.93;;
67595;SDS011;54410;48.694;8.934;2023-03-01T07:25:43;21.73;;;13.03;;
67595;SDS011;54410;48.694;8.934;2023-03-01T07:28:09;21.03;;;12.77;;
67595;SDS011;54410;48.694;8.934;2023-03-01T07:30:35;15.17;;;11.07;;
67595;SDS011;54410;48.694;8.934;2023-03-01T07:33:01;21.27;;;13.47;;
67595;SDS011;54410;48.694;8.934;2023-03-01T07:35:27;16.90;;;12.23;;
67595;SDS011;54410;48.694;8.934;2023-03-01T07:37:53;16.37;;;11.77;;
67595;SDS011;54410;48.694;8.934;2023-03-01T07:40:19;17.50;;;11.03;;
67595;SDS011;54410;48.694;8.934;2023-03-01T07:42:45;17.00;;;10.93;;
67595;SDS011;54410;48.694;8.934;2023-03-01T07:45:11;13.20;;;9.97;;
67595;SDS011;54410;48.694;8.934;2023-03-01T07:47:38;15.67;;;11.03;;
67595;SDS011;54410;48.694;8.934;2023-03-01T07:50:04;18.87;;;12.87;;
67595;SDS011;54410;48.694;8.934;2023-03-01T07:52:30;15.73;;;10.90;;
67595;SDS011;54410;48.694;8.934;2023-03-01T07:54:56;15.47;;;11.70;;
67595;SDS011;54410;48.694;8.934;2023-03-01T07:57:22;15.03;;;11.40;;
67595;SDS011;54410;48.694;8.934;2023-03-01T07:59:48;15.57;;;11.23;;
67595;SDS011;54410;48.694;8.934;2023-03-01T08:02:14;14.23;;;10.77;;
67595;SDS011;54410;48.694;8.934;2023-03-01T08:04:41;16.50;;;11.63;;
67595;SDS011;54410;48.694;8.934;2023-03-01T08:07:07;16.70;;;11.27;;
67595;SDS011;54410;48.694;8.934;2023-03-01T08:09:36;13.93;;;11.17;;
67595;SDS011;54410;48.694;8.934;2023-03-01T08:12:02;13.50;;;10.80;;
67595;SDS011;54410;48.694;8.934;2023-03-01T08:14:29;16.55;;;10.50;;
67595;SDS011;54410;48.694;8.934;2023-03-01T08:16:56;15.77;;;11.37;;
67595;SDS011;54410;48.694;8.934;2023-03-01T08:19:22;16.40;;;11.50;;
67595;SDS011;54410;48.694;8.934;2023-03-01T08:21:48;16.83;;;11.40;;
67595;SDS011;54410;48.694;8.934;2023-03-01T08:24:14;15.33;;;11.83;;
67595;SDS011;54410;48.694;8.934;2023-03-01T08:26:40;17.70;;;12.17;;
67595;SDS011;54410;48.694;8.934;2023-03-01T08:29:06;15.87;;;11.30;;
67595;SDS011;54410;48.694;8.934;2023-03-01T08:31:33;16.30;;;11.60;;
67595;SDS011;54410;48.694;8.934;2023-03-01T08:34:01;15.20;;;11.67;;
67595;SDS011;54410;48.694;8.934;2023-03-01T08:36:29;18.93;;;12.10;;
67595;SDS011;54410;48.694;8.934;2023-03-01T08:38:55;17.10;;;11.80;;
67595;SDS011;54410;48.694;8.934;2023-03-01T08:41:22;17.60;;;11.90;;
67595;SDS011;54410;48.694;8.934;2023-03-01T08:43:48;18.60;;;11.57;;
67595;SDS011;54410;48.694;8.934;2023-03-01T08:46:13;17.33;;;12.67;;
67595;SDS011;54410;48.694;8.934;2023-03-01T08:48:39;16.37;;;11.53;;
67595;SDS011;54410;48.694;8.934;2023-03-01T08:51:12;19.25;;;12.13;;
67595;SDS011;54410;48.694;8.934;2023-03-01T08:53:39;18.15;;;12.07;;
67595;SDS011;54410;48.694;8.934;2023-03-01T08:56:05;15.37;;;12.00;;
67595;SDS011;54410;48.694;8.934;2023-03-01T08:58:31;19.17;;;11.77;;
67595;SDS011;54410;48.694;8.934;2023-03-01T09:00:59;17.27;;;12.18;;
67595;SDS011;54410;48.694;8.934;2023-03-01T09:03:26;16.52;;;12.43;;
67595;SDS011;54410;48.694;8.934;2023-03-01T09:05:52;14.05;;;10.88;;
67595;SDS011;54410;48.694;8.934;2023-03-01T09:08:18;17.65;;;11.95;;
67595;SDS011;54410;48.694;8.934;2023-03-01T09:10:44;17.38;;;11.75;;
67595;SDS011;54410;48.694;8.934;2023-03-01T09:13:10;15.00;;;11.70;;
67595;SDS011;54410;48.694;8.934;2023-03-01T09:15:38;13.52;;;10.30;;
67595;SDS011;54410;48.694;8.934;2023-03-01T09:18:05;16.13;;;12.00;;
67595;SDS011;54410;48.694;8.934;2023-03-01T09:20:31;15.60;;;11.53;;
67595;SDS011;54410;48.694;8.934;2023-03-01T09:22:57;16.03;;;11.57;;
67595;SDS011;54410;48.694;8.934;2023-03-01T09:25:24;15.90;;;11.53;;
67595;SDS011;54410;48.694;8.934;2023-03-01T09:27:51;16.73;;;11.43;;
67595;SDS011;54410;48.694;8.934;2023-03-01T09:30:17;14.80;;;10.87;;
67595;SDS011;54410;48.694;8.934;2023-03-01T09:32:42;16.53;;;11.30;;
67595;SDS011;54410;48.694;8.934;2023-03-01T09:35:10;17.47;;;12.10;;
67595;SDS011;54410;48.694;8.934;2023-03-01T09:37:36;18.00;;;11.27;;
67595;SDS011;54410;48.694;8.934;2023-03-01T09:40:12;19.57;;;11.63;;
67595;SDS011;54410;48.694;8.934;2023-03-01T09:42:56;15.27;;;10.63;;
67595;SDS011;54410;48.694;8.934;2023-03-01T09:45:33;13.43;;;10.90;;
67595;SDS011;54410;48.694;8.934;2023-03-01T09:47:59;18.93;;;12.53;;
67595;SDS011;54410;48.694;8.934;2023-03-01T09:50:26;16.83;;;12.13;;
67595;SDS011;54410;48.694;8.934;2023-03-01T09:53:05;17.73;;;11.93;;
67595;SDS011;54410;48.694;8.934;2023-03-01T09:55:37;19.57;;;12.43;;
67595;SDS011;54410;48.694;8.934;2023-03-01T09:58:25;17.57;;;12.00;;
67595;SDS011;54410;48.694;8.934;2023-03-01T10:00:53;15.40;;;11.20;;
67595;SDS011;54410;48.694;8.934;2023-03-01T10:03:23;19.23;;;12.60;;
67595;SDS011;54410;48.694;8.934;2023-03-01T10:08:42;17.47;;;11.87;;
67595;SDS011;54410;48.694;8.934;2023-03-01T10:11:24;16.07;;;11.70;;
67595;SDS011;54410;48.694;8.934;2023-03-01T10:18:59;16.90;;;12.30;;
67595;SDS011;54410;48.694;8.934;2023-03-01T10:21:27;18.37;;;12.07;;
67595;SDS011;54410;48.694;8.934;2023-03-01T10:23:56;19.43;;;13.57;;
67595;SDS011;54410;48.694;8.934;2023-03-01T10:31:21;19.73;;;12.30;;
67595;SDS011;54410;48.694;8.934;2023-03-01T10:33:52;29.57;;;14.23;;
67595;SDS011;54410;48.694;8.934;2023-03-01T10:36:20;22.13;;;13.17;;
67595;SDS011;54410;48.694;8.934;2023-03-01T10:38:51;25.87;;;14.63;;
67595;SDS011;54410;48.694;8.934;2023-03-01T10:41:19;18.97;;;12.03;;
67595;SDS011;54410;48.694;8.934;2023-03-01T10:46:26;20.80;;;13.67;;
67595;SDS011;54410;48.694;8.934;2023-03-01T10:49:06;23.30;;;13.70;;
67595;SDS011;54410;48.694;8.934;2023-03-01T10:51:42;22.17;;;12.80;;
67595;SDS011;54410;48.694;8.934;2023-03-01T10:54:19;19.13;;;13.20;;
67595;SDS011;54410;48.694;8.934;2023-03-01T10:56:54;19.90;;;13.07;;
67595;SDS011;54410;48.694;8.934;2023-03-01T10:59:31;19.93;;;12.90;;
67595;SDS011;54410;48.694;8.934;2023-03-01T11:02:40;24.77;;;14.27;;
67595;SDS011;54410;48.694;8.934;2023-03-01T11:07:24;26.80;;;15.43;;
67595;SDS011;54410;48.694;8.934;2023-03-01T11:09:50;16.40;;;11.33;;
67595;SDS011;54410;48.694;8.934;2023-03-01T11:12:16;18.87;;;12.37;;
67595;SDS011;54410;48.694;8.934;2023-03-01T11:14:49;19.20;;;12.93;;
67595;SDS011;54410;48.694;8.934;2023-03-01T11:22:30;17.80;;;11.97;;
67595;SDS011;54410;48.694;8.934;2023-03-01T11:24:58;20.80;;;12.47;;
67595;SDS011;54410;48.694;8.934;2023-03-01T11:27:25;18.90;;;12.20;;
67595;SDS011;54410;48.694;8.934;2023-03-01T11:30:03;18.50;;;11.93;;
67595;SDS011;54410;48.694;8.934;2023-03-01T11:32:35;23.30;;;13.50;;
67595;SDS011;54410;48.694;8.934;2023-03-01T11:35:10;20.00;;;11.93;;
67595;SDS011;54410;48.694;8.934;2023-03-01T11:37:44;22.07;;;11.83;;
67595;SDS011;54410;48.694;8.934;2023-03-01T11:40:28;14.00;;;11.03;;
67595;SDS011;54410;48.694;8.934;2023-03-01T11:51:09;17.93;;;12.03;;
67595;SDS011;54410;48.694;8.934;2023-03-01T11:53:50;16.63;;;11.47;;
67595;SDS011;54410;48.694;8.934;2023-03-01T12:08:09;19.47;;;12.47;;
67595;SDS011;54410;48.694;8.934;2023-03-01T12:21:35;20.07;;;12.23;;
67595;SDS011;54410;48.694;8.934;2023-03-01T12:32:09;16.93;;;11.07;;
67595;SDS011;54410;48.694;8.934;2023-03-01T12:37:23;17.27;;;11.40;;
67595;SDS011;54410;48.694;8.934;2023-03-01T12:39:54;18.73;;;11.23;;
67595;SDS011;54410;48.694;8.934;2023-03-01T12:45:39;18.07;;;11.60;;
67595;SDS011;54410;48.694;8.934;2023-03-01T12:50:41;16.33;;;11.13;;
67595;SDS011;54410;48.694;8.934;2023-03-01T12:56:29;17.73;;;11.80;;
67595;SDS011;54410;48.694;8.934;2023-03-01T12:58:57;15.47;;;11.50;;
67595;SDS011;54410;48.694;8.934;2023-03-01T13:09:20;14.60;;;10.67;;
67595;SDS011;54410;48.694;8.934;2023-03-01T13:11:55;17.47;;;10.50;;
67595;SDS011;54410;48.694;8.934;2023-03-01T13:16:51;17.23;;;10.23;;
67595;SDS011;54410;48.694;8.934;2023-03-01T13:19:18;14.80;;;10.60;;
67595;SDS011;54410;48.694;8.934;2023-03-01T13:21:45;16.43;;;10.73;;
67595;SDS011;54410;48.694;8.934;2023-03-01T13:29:47;17.63;;;11.63;;
67595;SDS011;54410;48.694;8.934;2023-03-01T13:34:50;15.73;;;11.13;;
67595;SDS011;54410;48.694;8.934;2023-03-01T13:37:21;16.07;;;11.20;;
67595;SDS011;54410;48.694;8.934;2023-03-01T13:39:48;18.73;;;10.97;;
67595;SDS011;54410;48.694;8.934;2023-03-01T13:42:31;17.70;;;10.97;;
67595;SDS011;54410;48.694;8.934;2023-03-01T13:44:58;15.67;;;10.90;;
67595;SDS011;54410;48.694;8.934;2023-03-01T13:47:25;15.23;;;10.80;;
67595;SDS011;54410;48.694;8.934;2023-03-01T13:50:02;16.37;;;10.43;;
67595;SDS011;54410;48.694;8.934;2023-03-01T13:54:58;16.80;;;10.87;;
67595;SDS011;54410;48.694;8.934;2023-03-01T13:57:26;15.80;;;11.20;;
67595;SDS011;54410;48.694;8.934;2023-03-01T13:59:54;16.10;;;11.07;;
67595;SDS011;54410;48.694;8.934;2023-03-01T14:02:20;15.30;;;11.27;;
67595;SDS011;54410;48.694;8.934;2023-03-01T14:04:55;18.03;;;11.20;;
67595;SDS011;54410;48.694;8.934;2023-03-01T14:07:25;16.77;;;11.17;;
67595;SDS011;54410;48.694;8.934;2023-03-01T14:09:55;14.77;;;10.60;;
67595;SDS011;54410;48.694;8.934;2023-03-01T14:18:10;18.17;;;12.23;;
67595;SDS011;54410;48.694;8.934;2023-03-01T14:20:33;18.20;;;11.73;;
67595;SDS011;54410;48.694;8.934;2023-03-01T14:23:08;18.73;;;12.10;;
67595;SDS011;54410;48.694;8.934;2023-03-01T14:25:35;18.23;;;11.60;;
67595;SDS011;54410;48.694;8.934;2023-03-01T14:30:36;15.90;;;11.10;;
67595;SDS011;54410;48.694;8.934;2023-03-01T14:33:04;17.67;;;12.17;;
67595;SDS011;54410;48.694;8.934;2023-03-01T14:35:32;16.53;;;11.50;;
67595;SDS011;54410;48.694;8.934;2023-03-01T14:37:59;16.03;;;11.30;;
67595;SDS011;54410;48.694;8.934;2023-03-01T14:40:26;16.17;;;11.43;;
67595;SDS011;54410;48.694;8.934;2023-03-01T14:42:58;21.30;;;11.83;;
67595;SDS011;54410;48.694;8.934;2023-03-01T14:45:26;16.17;;;11.63;;
67595;SDS011;54410;48.694;8.934;2023-03-01T14:47:52;17.97;;;11.73;;
67595;SDS011;54410;48.694;8.934;2023-03-01T14:52:46;16.83;;;10.63;;
67595;SDS011;54410;48.694;8.934;2023-03-01T14:55:16;19.63;;;11.63;;
67595;SDS011;54410;48.694;8.934;2023-03-01T14:57:44;15.63;;;11.33;;
67595;SDS011;54410;48.694;8.934;2023-03-01T15:00:10;14.47;;;11.07;;
67595;SDS011;54410;48.694;8.934;2023-03-01T15:02:39;17.13;;;12.17;;
67595;SDS011;54410;48.694;8.934;2023-03-01T15:05:04;16.50;;;10.90;;
67595;SDS011;54410;48.694;8.934;2023-03-01T15:07:33;16.77;;;11.47;;
67595;SDS011;54410;48.694;8.934;2023-03-01T15:09:59;17.10;;;11.77;;
67595;SDS011;54410;48.694;8.934;2023-03-01T15:14:55;19.27;;;12.10;;
67595;SDS011;54410;48.694;8.934;2023-03-01T15:17:36;17.07;;;11.43;;
67595;SDS011;54410;48.694;8.934;2023-03-01T15:20:13;19.57;;;11.63;;
67595;SDS011;54410;48.694;8.934;2023-03-01T15:22:43;16.17;;;11.17;;
67595;SDS011;54410;48.694;8.934;2023-03-01T15:25:16;20.47;;;12.47;;
67595;SDS011;54410;48.694;8.934;2023-03-01T15:27:45;20.83;;;12.20;;
67595;SDS011;54410;48.694;8.934;2023-03-01T15:30:19;17.80;;;12.10;;
67595;SDS011;54410;48.694;8.934;2023-03-01T15:32:46;20.90;;;11.53;;
67595;SDS011;54410;48.694;8.934;2023-03-01T15:40:58;19.53;;;12.30;;
67595;SDS011;54410;48.694;8.934;2023-03-01T15:46:17;18.30;;;12.53;;
67595;SDS011;54410;48.694;8.934;2023-03-01T15:48:44;18.73;;;11.57;;
67595;SDS011;54410;48.694;8.934;2023-03-01T15:51:11;19.97;;;11.40;;
67595;SDS011;54410;48.694;8.934;2023-03-01T15:53:39;18.17;;;11.63;;
67595;SDS011;54410;48.694;8.934;2023-03-01T15:56:05;16.43;;;12.00;;
67595;SDS011;54410;48.694;8.934;2023-03-01T15:58:32;18.77;;;12.27;;
67595;SDS011;54410;48.694;8.934;2023-03-01T16:00:58;22.97;;;11.77;;
67595;SDS011;54410;48.694;8.934;2023-03-01T16:03:24;17.93;;;12.13;;
67595;SDS011;54410;48.694;8.934;2023-03-01T16:05:50;17.90;;;11.73;;
67595;SDS011;54410;48.694;8.934;2023-03-01T16:08:17;22.03;;;12.47;;
67595;SDS011;54410;48.694;8.934;2023-03-01T16:10:43;17.50;;;11.77;;
67595;SDS011;54410;48.694;8.934;2023-03-01T16:13:09;18.83;;;12.23;;
67595;SDS011;54410;48.694;8.934;2023-03-01T16:15:36;20.90;;;11.70;;
67595;SDS011;54410;48.694;8.934;2023-03-01T16:18:02;16.87;;;11.87;;
67595;SDS011;54410;48.694;8.934;2023-03-01T16:20:30;20.00;;;12.37;;
67595;SDS011;54410;48.694;8.934;2023-03-01T16:23:00;20.83;;;11.43;;
67595;SDS011;54410;48.694;8.934;2023-03-01T16:25:26;17.77;;;11.63;;
67595;SDS011;54410;48.694;8.934;2023-03-01T16:27:52;22.40;;;13.37;;
67595;SDS011;54410;48.694;8.934;2023-03-01T16:30:20;17.57;;;11.57;;
67595;SDS011;54410;48.694;8.934;2023-03-01T16:32:47;19.20;;;12.40;;
67595;SDS011;54410;48.694;8.934;2023-03-01T16:35:14;20.13;;;11.93;;